Time;durP1;ratioP1;P1;durP2;ratioP2;P2;SDS_P1;SDS_P2;PMS_P1;PMS_P2;Temp;Humidity;BMP_temperature;BMP_pressure;BME280_temperature;BME280_humidity;BME280_pressure;Samples;Min_cycle;Max_cycle;Signal;HPM_P1;HPM_P2
2022/03/23 00:00:05;;;;;;;;;;;;;;;7.80;39.63;96229.75;5073486;28;965;-50
2022/03/23 00:02:31;;;;;;;;;;;;;;;7.76;39.72;96231.81;5073208;28;1107;-49
2022/03/23 00:04:57;;;;;;;;;;;;;;;7.74;39.52;96225.75;5073352;28;1027;-49
2022/03/23 00:07:23;;;;;;;;;;;;;;;7.70;39.60;96228.75;5073114;28;1040;-50
2022/03/23 00:09:50;;;;;;;;;;;;;;;7.58;39.63;96241.19;5073259;28;1025;-49
2022/03/23 00:12:16;;;;;;;;;;;;;;;7.50;39.68;96232.94;5072206;28;1906;-49
2022/03/23 00:14:43;;;;;;;;;;;;;;;7.58;39.25;96225.22;5073275;28;1004;-49
2022/03/23 00:17:09;;;;;;;;;;;;;;;7.52;39.50;96231.00;5073141;28;957;-50
2022/03/23 00:19:35;;;;;;;;;;;;;;;7.47;39.73;96225.19;5073188;28;1035;-49
2022/03/23 00:22:01;;;;;;;;;;;;;;;7.43;39.91;96240.53;5072801;28;1011;-49
2022/03/23 00:24:27;;;;;;;;;;;;;;;7.43;39.62;96235.19;5072189;28;973;-50
2022/03/23 00:26:53;;;;;;;;;;;;;;;7.41;39.64;96239.78;5073053;28;1055;-49
2022/03/23 00:29:19;;;;;;;;;;;;;;;7.32;39.47;96233.38;5073121;28;1017;-49
2022/03/23 00:31:45;;;;;;;;;;;;;;;7.34;39.45;96228.78;5072764;28;1957;-50
2022/03/23 00:34:11;;;;;;;;;;;;;;;7.30;39.59;96237.06;5073052;28;1048;-49
2022/03/23 00:36:38;;;;;;;;;;;;;;;7.26;39.57;96228.47;5072798;28;1039;-49
2022/03/23 00:39:04;;;;;;;;;;;;;;;7.18;39.49;96222.88;5072925;28;1059;-49
2022/03/23 00:41:30;;;;;;;;;;;;;;;7.10;39.28;96231.44;5073077;28;965;-49
2022/03/23 00:43:56;;;;;;;;;;;;;;;7.16;39.17;96227.47;5072640;28;1053;-48
2022/03/23 00:46:23;;;;;;;;;;;;;;;7.15;39.05;96229.28;5073028;28;1028;-49
2022/03/23 00:48:49;;;;;;;;;;;;;;;7.14;38.96;96232.91;5072485;28;1327;-50
2022/03/23 00:51:15;;;;;;;;;;;;;;;7.03;39.09;96232.84;5072681;28;1902;-50
2022/03/23 00:53:41;;;;;;;;;;;;;;;6.96;39.25;96227.13;5072924;28;1025;-50
2022/03/23 00:56:09;;;;;;;;;;;;;;;7.01;38.56;96219.66;5072818;28;1131;-49
2022/03/23 00:58:35;;;;;;;;;;;;;;;7.08;38.31;96225.38;5072766;28;1112;-49
2022/03/23 01:01:02;;;;;;;;;;;;;;;6.95;38.32;96225.44;5072748;28;1076;-49
2022/03/23 01:03:28;;;;;;;;;;;;;;;6.97;38.06;96223.50;5072564;28;1032;-49
2022/03/23 01:05:54;;;;;;;;;;;;;;;7.02;37.50;96220.53;5072515;28;1037;-49
2022/03/23 01:08:20;;;;;;;;;;;;;;;7.04;37.28;96229.25;5072806;28;964;-49
2022/03/23 01:10:46;;;;;;;;;;;;;;;7.01;37.53;96218.81;5072517;28;1913;-49
2022/03/23 01:13:12;;;;;;;;;;;;;;;6.97;37.57;96215.53;5072341;28;1071;-49
2022/03/23 01:15:38;;;;;;;;;;;;;;;6.87;37.89;96211.00;5072828;28;996;-49
2022/03/23 01:18:04;;;;;;;;;;;;;;;6.80;37.49;96205.28;5072408;28;1060;-49
2022/03/23 01:20:30;;;;;;;;;;;;;;;6.69;37.62;96206.06;5072621;28;996;-49
2022/03/23 01:22:56;;;;;;;;;;;;;;;6.72;37.59;96194.38;5073695;28;1024;-49
2022/03/23 01:25:23;;;;;;;;;;;;;;;6.73;37.34;96201.38;5076404;28;1027;-49
2022/03/23 01:27:49;;;;;;;;;;;;;;;6.76;37.45;96201.16;5076117;28;972;-49
2022/03/23 01:30:16;;;;;;;;;;;;;;;6.76;37.09;96196.69;5076188;28;1897;-49
2022/03/23 01:32:43;;;;;;;;;;;;;;;6.65;37.24;96191.31;5075888;28;1007;-49
2022/03/23 01:35:10;;;;;;;;;;;;;;;6.47;37.72;96185.53;5076169;28;928;-48
2022/03/23 01:37:36;;;;;;;;;;;;;;;6.43;37.87;96194.66;5076159;28;1051;-49
2022/03/23 01:40:04;;;;;;;;;;;;;;;6.29;37.71;96195.66;5075927;28;1106;-49
2022/03/23 01:42:30;;;;;;;;;;;;;;;6.28;38.15;96191.31;5075566;28;1028;-49
2022/03/23 01:44:56;;;;;;;;;;;;;;;6.17;38.17;96188.56;5075943;28;977;-49
2022/03/23 01:47:22;;;;;;;;;;;;;;;6.33;37.96;96190.97;5075866;28;1040;-49
2022/03/23 01:49:52;;;;;;;;;;;;;;;6.43;37.53;96184.91;5074168;28;1161;-49
2022/03/23 01:52:20;;;;;;;;;;;;;;;6.52;37.04;96179.88;5075836;28;1914;-49
2022/03/23 01:54:46;;;;;;;;;;;;;;;6.59;36.97;96183.78;5075528;28;1108;-49
2022/03/23 01:57:16;;;;;;;;;;;;;;;6.48;36.74;96192.53;5075860;28;1023;-49
2022/03/23 01:59:42;;;;;;;;;;;;;;;6.56;36.94;96186.66;5075326;28;1046;-49
2022/03/23 02:02:08;;;;;;;;;;;;;;;6.61;36.70;96173.88;5075442;28;1012;-48
2022/03/23 02:04:34;;;;;;;;;;;;;;;6.56;36.94;96170.72;5075300;28;1024;-49
2022/03/23 02:07:00;;;;;;;;;;;;;;;6.50;37.01;96173.81;5075434;28;1029;-49
2022/03/23 02:09:27;;;;;;;;;;;;;;;6.55;36.93;96172.53;5075517;28;961;-49
2022/03/23 02:11:53;;;;;;;;;;;;;;;6.45;36.91;96174.16;5075140;28;1996;-49
2022/03/23 02:14:20;;;;;;;;;;;;;;;6.49;36.64;96170.31;5075193;28;1113;-49
2022/03/23 02:16:47;;;;;;;;;;;;;;;6.52;36.67;96175.38;5075240;28;1004;-49
2022/03/23 02:19:13;;;;;;;;;;;;;;;6.51;36.62;96163.09;5075255;28;956;-49
2022/03/23 02:21:55;;;;;;;;;;;;;;;6.52;36.78;96164.75;5075440;28;1028;-49
2022/03/23 02:24:22;;;;;;;;;;;;;;;6.54;36.65;96167.31;5075088;28;1052;-49
2022/03/23 02:26:48;;;;;;;;;;;;;;;6.51;37.00;96162.25;5075010;28;1076;-49
2022/03/23 02:29:15;;;;;;;;;;;;;;;6.30;37.37;96164.63;5074875;28;957;-49
2022/03/23 02:31:41;;;;;;;;;;;;;;;6.19;37.58;96170.72;5075198;28;1999;-49
2022/03/23 02:34:07;;;;;;;;;;;;;;;6.15;37.49;96172.72;5073986;28;1023;-48
2022/03/23 02:36:33;;;;;;;;;;;;;;;6.15;37.40;96171.91;5075100;28;1031;-49
2022/03/23 02:38:59;;;;;;;;;;;;;;;6.20;37.57;96170.59;5074615;28;1032;-49
2022/03/23 02:41:25;;;;;;;;;;;;;;;6.19;37.58;96178.69;5074822;28;1075;-49
2022/03/23 02:43:51;;;;;;;;;;;;;;;6.16;37.45;96181.53;5074262;28;1095;-49
2022/03/23 02:46:18;;;;;;;;;;;;;;;6.23;37.45;96183.66;5074715;28;1072;-49
2022/03/23 02:48:45;;;;;;;;;;;;;;;6.18;37.79;96182.28;5074422;28;1120;-50
2022/03/23 02:51:11;;;;;;;;;;;;;;;6.21;38.03;96179.41;5074583;28;1914;-49
2022/03/23 03:02:15;;;;;;;;;;;;;;;5.98;38.11;96179.22;5074344;28;1088;-49
2022/03/23 03:04:41;;;;;;;;;;;;;;;5.85;38.17;96175.72;5074123;28;1013;-48
2022/03/23 03:07:07;;;;;;;;;;;;;;;5.84;38.17;96177.53;5074226;28;1075;-49
2022/03/23 03:09:33;;;;;;;;;;;;;;;5.85;38.25;96175.72;5074123;28;1980;-49
2022/03/23 03:12:01;;;;;;;;;;;;;;;5.81;38.54;96180.38;5074002;28;1989;-49
2022/03/23 03:14:27;;;;;;;;;;;;;;;5.82;38.21;96182.09;5074135;28;1047;-49
2022/03/23 03:16:53;;;;;;;;;;;;;;;5.84;37.96;96180.16;5074165;28;1041;-49
2022/03/23 03:19:19;;;;;;;;;;;;;;;5.95;37.93;96183.88;5073804;28;976;-49
2022/03/23 03:21:46;;;;;;;;;;;;;;;5.96;38.04;96189.13;5073970;28;996;-49
2022/03/23 03:24:12;;;;;;;;;;;;;;;5.94;37.87;96195.44;5073840;28;998;-49
2022/03/23 03:26:38;;;;;;;;;;;;;;;5.79;38.31;96192.91;5074112;28;1032;-49
2022/03/23 03:29:04;;;;;;;;;;;;;;;5.72;38.30;96201.41;5073815;28;1040;-49
2022/03/23 03:31:30;;;;;;;;;;;;;;;5.78;38.47;96187.69;5073773;28;1991;-49
2022/03/23 03:33:57;;;;;;;;;;;;;;;5.76;38.42;96189.63;5073658;28;1008;-49
2022/03/23 03:36:23;;;;;;;;;;;;;;;5.62;38.52;96191.41;5073567;28;956;-49
2022/03/23 03:38:49;;;;;;;;;;;;;;;5.65;38.63;96199.19;5073890;28;956;-49
2022/03/23 03:41:16;;;;;;;;;;;;;;;5.59;38.81;96193.44;5073560;28;1032;-49
2022/03/23 03:43:43;;;;;;;;;;;;;;;5.64;38.81;96202.78;5073458;28;1063;-49
2022/03/23 03:46:11;;;;;;;;;;;;;;;5.65;38.92;96206.25;5073427;28;1044;-49
2022/03/23 03:48:38;;;;;;;;;;;;;;;5.60;39.08;96203.94;5073339;28;1260;-49
2022/03/23 03:51:06;;;;;;;;;;;;;;;5.62;38.79;96196.72;5073142;28;1910;-49
2022/03/23 03:53:32;;;;;;;;;;;;;;;5.53;39.61;96207.13;5073755;28;1027;-48
2022/03/23 03:55:58;;;;;;;;;;;;;;;5.52;39.40;96200.97;5073450;28;1052;-48
2022/03/23 03:58:25;;;;;;;;;;;;;;;5.61;39.23;96213.56;5072421;28;1788;-49
2022/03/23 04:00:51;;;;;;;;;;;;;;;5.40;39.53;96209.75;5071932;28;1124;-48
2022/03/23 04:03:17;;;;;;;;;;;;;;;5.27;39.81;96202.63;5073360;28;1031;-49
2022/03/23 04:05:44;;;;;;;;;;;;;;;5.29;39.69;96207.81;5072003;28;1095;-49
2022/03/23 04:08:10;;;;;;;;;;;;;;;5.41;39.58;96214.09;5073315;28;1040;-49
2022/03/23 04:10:36;;;;;;;;;;;;;;;5.47;39.24;96213.69;5073072;28;1946;-49
2022/03/23 04:13:03;;;;;;;;;;;;;;;5.39;39.45;96211.56;5071859;28;988;-48
2022/03/23 04:15:29;;;;;;;;;;;;;;;5.21;40.36;96210.13;5073101;28;1028;-48
2022/03/23 04:17:55;;;;;;;;;;;;;;;5.08;40.65;96207.44;5071915;28;1036;-48
2022/03/23 04:20:25;;;;;;;;;;;;;;;5.03;40.42;96206.91;5073069;28;1020;-48
2022/03/23 04:22:51;;;;;;;;;;;;;;;5.07;40.67;96214.53;5073348;28;944;-49
2022/03/23 04:25:18;;;;;;;;;;;;;;;4.99;40.71;96211.56;5073038;28;1060;-49
2022/03/23 04:27:45;;;;;;;;;;;;;;;4.87;41.24;96221.13;5073046;28;1119;-49
2022/03/23 04:30:12;;;;;;;;;;;;;;;4.83;41.00;96222.28;5073077;28;1918;-49
2022/03/23 04:32:38;;;;;;;;;;;;;;;4.95;40.58;96219.78;5073057;28;956;-49
2022/03/23 04:35:07;;;;;;;;;;;;;;;4.97;40.94;96216.13;5073195;28;1159;-48
2022/03/23 04:37:33;;;;;;;;;;;;;;;4.94;40.70;96218.94;5072988;28;1075;-48
2022/03/23 04:40:00;;;;;;;;;;;;;;;4.87;40.70;96215.84;5071931;28;961;-48
2022/03/23 04:42:26;;;;;;;;;;;;;;;4.94;40.87;96215.47;5072805;28;1052;-48
2022/03/23 04:44:52;;;;;;;;;;;;;;;5.05;40.34;96213.78;5071708;28;1076;-49
2022/03/23 04:47:18;;;;;;;;;;;;;;;5.10;40.46;96216.13;5072734;28;1041;-48
2022/03/23 04:49:44;;;;;;;;;;;;;;;5.05;40.74;96216.44;5072542;28;1084;-48
2022/03/23 04:52:12;;;;;;;;;;;;;;;5.06;40.87;96218.13;5072609;28;1991;-48
2022/03/23 04:54:38;;;;;;;;;;;;;;;5.17;41.09;96225.38;5073071;28;981;-49
2022/03/23 04:57:05;;;;;;;;;;;;;;;5.21;41.17;96223.38;5071594;28;1004;-49
2022/03/23 04:59:31;;;;;;;;;;;;;;;5.42;40.46;96227.25;5076708;28;1029;-49
2022/03/23 05:01:57;;;;;;;;;;;;;;;5.50;40.86;96226.72;5076432;28;1109;-48
2022/03/23 05:04:23;;;;;;;;;;;;;;;5.83;40.19;96241.31;5076857;28;1115;-49
2022/03/23 05:06:49;;;;;;;;;;;;;;;5.94;39.97;96222.84;5076335;28;1185;-49
2022/03/23 05:09:15;;;;;;;;;;;;;;;6.09;40.02;96225.41;5076709;28;1036;-49
2022/03/23 05:11:41;;;;;;;;;;;;;;;6.22;39.76;96244.84;5076299;28;1946;-49
2022/03/23 05:14:07;;;;;;;;;;;;;;;6.48;39.24;96239.50;5076191;28;1024;-49
2022/03/23 05:16:34;;;;;;;;;;;;;;;6.49;39.24;96246.50;5076224;28;1035;-49
2022/03/23 05:19:00;;;;;;;;;;;;;;;6.62;39.42;96247.31;5076185;28;1021;-48
2022/03/23 05:21:26;;;;;;;;;;;;;;;6.81;39.07;96245.06;5075016;28;1035;-49
2022/03/23 05:23:52;;;;;;;;;;;;;;;6.91;38.66;96241.72;5076437;28;977;-48
2022/03/23 05:26:18;;;;;;;;;;;;;;;6.98;38.85;96241.16;5075023;28;1012;-61
2022/03/23 05:28:45;;;;;;;;;;;;;;;7.02;39.33;96239.97;5076223;28;1048;-49
2022/03/23 05:31:11;;;;;;;;;;;;;;;7.15;38.97;96252.34;5076067;28;1995;-48
2022/03/23 05:33:37;;;;;;;;;;;;;;;7.54;39.27;96245.03;5076174;28;960;-53
2022/03/23 05:36:03;;;;;;;;;;;;;;;7.72;38.33;96254.31;5076037;28;1954;-49
2022/03/23 05:38:29;;;;;;;;;;;;;;;7.73;38.55;96253.31;5075882;28;1107;-49
2022/03/23 05:40:56;;;;;;;;;;;;;;;7.71;38.55;96259.75;5074705;28;1041;-49
2022/03/23 05:43:22;;;;;;;;;;;;;;;7.93;38.04;96265.13;5074409;28;1115;-48
2022/03/23 05:45:49;;;;;;;;;;;;;;;8.09;38.41;96258.63;5075763;28;1029;-49
2022/03/23 05:48:15;;;;;;;;;;;;;;;8.38;37.88;96259.88;5075674;28;1101;-49
2022/03/23 05:50:41;;;;;;;;;;;;;;;8.82;36.93;96251.13;5075689;28;1979;-48
2022/03/23 05:53:08;;;;;;;;;;;;;;;8.92;36.93;96258.28;5075507;28;1939;-49
2022/03/23 05:55:34;;;;;;;;;;;;;;;9.13;36.56;96254.84;5075808;28;1993;-49
2022/03/23 05:58:00;;;;;;;;;;;;;;;9.41;35.87;96257.91;5075505;28;1163;-48
2022/03/23 06:00:26;;;;;;;;;;;;;;;9.70;35.71;96264.34;5075540;28;1072;-49
2022/03/23 06:02:53;;;;;;;;;;;;;;;9.84;35.58;96265.84;5075529;28;1040;-48
2022/03/23 06:05:19;;;;;;;;;;;;;;;9.91;35.05;96263.53;5075809;28;973;-49
2022/03/23 06:07:45;;;;;;;;;;;;;;;10.40;34.59;96263.88;5075686;28;1011;-49
2022/03/23 06:10:12;;;;;;;;;;;;;;;10.47;33.91;96271.22;5074254;28;1957;-49
2022/03/23 06:12:38;;;;;;;;;;;;;;;11.08;33.65;96264.13;5075054;28;1020;-49
2022/03/23 06:15:05;;;;;;;;;;;;;;;11.66;32.50;96266.03;5075236;28;1009;-49
2022/03/23 06:17:31;;;;;;;;;;;;;;;12.24;31.84;96271.38;5075276;28;1024;-49
2022/03/23 06:19:57;;;;;;;;;;;;;;;13.10;30.95;96262.31;5074236;28;973;-49
2022/03/23 06:22:23;;;;;;;;;;;;;;;14.90;28.25;96265.75;5073849;28;1016;-49
2022/03/23 06:24:50;;;;;;;;;;;;;;;17.31;25.11;96265.50;5075095;28;1012;-49
2022/03/23 06:27:16;;;;;;;;;;;;;;;19.54;22.74;96269.88;5074962;28;1075;-51
2022/03/23 06:29:42;;;;;;;;;;;;;;;22.25;20.36;96275.81;5075034;28;1178;-51
2022/03/23 06:32:09;;;;;;;;;;;;;;;23.30;19.41;96282.34;5074929;28;1914;-52
2022/03/23 06:34:35;;;;;;;;;;;;;;;24.18;18.19;96275.50;5075156;28;1048;-51
2022/03/23 06:37:01;;;;;;;;;;;;;;;23.80;18.15;96278.22;5074809;28;1080;-50
2022/03/23 06:39:31;;;;;;;;;;;;;;;22.88;18.37;96287.22;5074969;28;1646;-50
2022/03/23 06:41:58;;;;;;;;;;;;;;;20.96;19.64;96286.38;5074553;28;1087;-50
2022/03/23 06:44:24;;;;;;;;;;;;;;;20.26;21.02;96280.72;5073369;28;1095;-51
2022/03/23 06:46:51;;;;;;;;;;;;;;;20.55;20.17;96278.06;5074519;28;1096;-50
2022/03/23 06:49:17;;;;;;;;;;;;;;;19.99;20.95;96286.91;5074448;28;1065;-50
2022/03/23 06:51:43;;;;;;;;;;;;;;;20.81;19.98;96282.88;5074878;28;1918;-51
2022/03/23 06:54:10;;;;;;;;;;;;;;;22.53;18.60;96289.31;5075080;28;1012;-50
2022/03/23 06:56:36;;;;;;;;;;;;;;;22.59;18.56;96283.88;5073905;28;1036;-50
2022/03/23 06:59:04;;;;;;;;;;;;;;;22.67;18.64;96285.56;5073410;28;1003;-50
2022/03/23 07:01:30;;;;;;;;;;;;;;;23.33;18.11;96281.91;5073594;28;1670;-50
2022/03/23 07:03:56;;;;;;;;;;;;;;;25.21;16.81;96287.13;5073406;28;950;-51
2022/03/23 07:06:22;;;;;;;;;;;;;;;26.90;15.45;96289.19;5074568;28;1055;-52
2022/03/23 07:11:33;;;;;;;;;;;;;;;28.26;14.11;96290.84;5074163;28;2012;-52
2022/03/23 07:13:59;;;;;;;;;;;;;;;28.67;14.00;96291.63;5073989;28;1020;-52
2022/03/23 07:16:25;;;;;;;;;;;;;;;29.55;13.17;96289.16;5074387;28;964;-52
2022/03/23 07:18:51;;;;;;;;;;;;;;;29.66;12.86;96290.16;5073871;28;1117;-52
2022/03/23 07:21:17;;;;;;;;;;;;;;;29.59;13.31;96284.00;5073973;28;985;-53
2022/03/23 07:23:43;;;;;;;;;;;;;;;29.65;12.91;96294.00;5073988;28;960;-52
2022/03/23 07:26:09;;;;;;;;;;;;;;;31.16;12.16;96289.91;5073919;28;995;-52
2022/03/23 07:28:35;;;;;;;;;;;;;;;30.96;12.45;96285.88;5073997;28;1060;-50
2022/03/23 07:31:02;;;;;;;;;;;;;;;30.33;12.77;96285.50;5073894;28;1988;-50
2022/03/23 07:33:31;;;;;;;;;;;;;;;30.05;12.78;96290.16;5073829;28;1028;-50
2022/03/23 07:35:57;;;;;;;;;;;;;;;30.06;12.81;96294.56;5073567;28;1133;-50
2022/03/23 07:38:23;;;;;;;;;;;;;;;31.39;12.14;96302.50;5073674;28;1028;-50
2022/03/23 07:40:49;;;;;;;;;;;;;;;31.77;11.94;96286.72;5073528;28;1024;-50
2022/03/23 07:43:15;;;;;;;;;;;;;;;31.38;11.94;96293.38;5073500;28;1056;-50
2022/03/23 07:45:41;;;;;;;;;;;;;;;31.37;12.18;96291.72;5072201;28;1287;-50
2022/03/23 07:48:07;;;;;;;;;;;;;;;31.71;11.53;96283.94;5073385;28;1097;-50
2022/03/23 07:50:33;;;;;;;;;;;;;;;31.62;11.73;96274.47;5073521;28;1913;-50
2022/03/23 07:52:59;;;;;;;;;;;;;;;32.22;11.54;96279.75;5073582;28;1011;-50
2022/03/23 07:55:25;;;;;;;;;;;;;;;32.85;10.92;96283.22;5073272;28;1084;-50
2022/03/23 07:57:52;;;;;;;;;;;;;;;32.45;11.48;96273.72;5055887;28;985;-50
2022/03/23 08:00:18;;;;;;;;;;;;;;;32.95;10.25;96274.06;5073515;28;1031;-50
2022/03/23 08:02:44;;;;;;;;;;;;;;;32.36;10.74;96283.66;5073335;28;1009;-50
2022/03/23 08:05:10;;;;;;;;;;;;;;;32.41;11.02;96277.31;5073347;28;1023;-50
2022/03/23 08:07:36;;;;;;;;;;;;;;;32.60;11.13;96274.91;5073405;28;1020;-50
2022/03/23 08:10:03;;;;;;;;;;;;;;;31.67;11.89;96277.28;5072951;28;829;-49
2022/03/23 08:12:29;;;;;;;;;;;;;;;30.73;11.76;96276.84;5071835;28;1975;-49
2022/03/23 08:14:55;;;;;;;;;;;;;;;29.53;12.33;96265.72;5073238;28;914;-49
2022/03/23 08:17:21;;;;;;;;;;;;;;;27.52;13.68;96272.25;5073210;28;1017;-49
2022/03/23 08:20:32;;;;;;;;;;;;;;;24.75;15.55;96268.16;5072963;28;921;-49
2022/03/23 08:22:36;;;;;;;;;;;;;;;23.07;17.16;96266.47;5073142;28;1395;-48
2022/03/23 08:25:03;;;;;;;;;;;;;;;22.46;17.55;96269.38;5073086;28;1037;-47
2022/03/23 08:27:29;;;;;;;;;;;;;;;21.44;18.54;96264.69;5073186;28;1106;-47
2022/03/23 08:29:55;;;;;;;;;;;;;;;20.75;19.35;96278.25;5073364;28;980;-48
2022/03/23 08:32:22;;;;;;;;;;;;;;;20.42;19.74;96257.88;5072290;28;1910;-50
2022/03/23 08:34:52;;;;;;;;;;;;;;;19.37;20.32;96258.38;5077126;28;1000;-50
2022/03/23 08:37:18;;;;;;;;;;;;;;;19.82;19.79;96260.00;5075950;28;1079;-50
2022/03/23 08:39:44;;;;;;;;;;;;;;;18.03;21.14;96264.44;5077237;28;957;-50
2022/03/23 08:42:10;;;;;;;;;;;;;;;16.36;22.97;96258.16;5076893;28;1033;-50
2022/03/23 08:44:36;;;;;;;;;;;;;;;15.71;23.98;96255.41;5077114;28;1032;-50
2022/03/23 08:47:02;;;;;;;;;;;;;;;17.20;23.05;96255.09;5076846;28;1965;-50
2022/03/23 08:49:28;;;;;;;;;;;;;;;15.04;25.05;96253.50;5076788;28;1159;-50
2022/03/23 08:51:55;;;;;;;;;;;;;;;15.31;25.28;96255.16;5075630;28;1906;-49
2022/03/23 08:54:22;;;;;;;;;;;;;;;15.60;24.48;96249.31;5076952;28;1025;-50
2022/03/23 08:56:48;;;;;;;;;;;;;;;15.02;24.79;96248.31;5076881;28;950;-50
2022/03/23 08:59:14;;;;;;;;;;;;;;;15.75;24.14;96241.44;5077002;28;1044;-50
2022/03/23 09:01:40;;;;;;;;;;;;;;;16.34;24.56;96243.16;5076588;28;1036;-50
2022/03/23 09:04:08;;;;;;;;;;;;;;;17.27;22.62;96247.97;5076696;28;1187;-50
2022/03/23 09:06:34;;;;;;;;;;;;;;;17.70;22.32;96242.16;5076482;28;1020;-50
2022/03/23 09:09:00;;;;;;;;;;;;;;;17.69;22.46;96251.28;5076506;28;1075;-50
2022/03/23 09:11:27;;;;;;;;;;;;;;;16.29;23.97;96243.63;5075315;28;1910;-50
2022/03/23 09:13:53;;;;;;;;;;;;;;;15.60;24.67;96245.78;5076229;28;1024;-50
2022/03/23 09:16:19;;;;;;;;;;;;;;;15.64;24.65;96240.91;5076271;28;1844;-50
2022/03/23 09:18:45;;;;;;;;;;;;;;;16.18;24.89;96252.94;5076364;28;1032;-50
2022/03/23 09:21:13;;;;;;;;;;;;;;;16.66;24.49;96241.41;5076211;28;940;-50
2022/03/23 09:23:40;;;;;;;;;;;;;;;16.78;23.73;96242.72;5076627;28;1007;-50
2022/03/23 09:26:09;;;;;;;;;;;;;;;16.47;24.20;96238.06;5076221;28;1049;-50
2022/03/23 09:28:35;;;;;;;;;;;;;;;16.30;24.14;96239.09;5076264;28;1024;-50
2022/03/23 09:31:02;;;;;;;;;;;;;;;15.68;24.18;96242.25;5075925;28;1906;-50
2022/03/23 09:33:28;;;;;;;;;;;;;;;14.05;26.04;96227.84;5076303;28;984;-50
2022/03/23 09:35:54;;;;;;;;;;;;;;;15.14;25.64;96230.00;5074671;28;1115;-50
2022/03/23 09:38:20;;;;;;;;;;;;;;;15.76;25.12;96240.44;5076060;28;1092;-50
2022/03/23 09:40:47;;;;;;;;;;;;;;;16.34;24.83;96243.16;5076070;28;1055;-50
2022/03/23 09:43:14;;;;;;;;;;;;;;;16.75;23.94;96237.66;5075780;28;969;-50
2022/03/23 09:51:32;;;;;;;;;;;;;;;16.64;23.20;96244.28;4256731;28;2084;-51
2022/03/23 09:53:59;;;;;;;;;;;;;;;16.74;23.80;96230.59;5075926;28;969;-50
2022/03/23 09:56:25;;;;;;;;;;;;;;;16.75;22.89;96235.81;5075571;28;1099;-49
2022/03/23 09:58:51;;;;;;;;;;;;;;;16.60;23.18;96232.16;5075565;28;1023;-50
2022/03/23 10:01:29;;;;;;;;;;;;;;;16.47;23.56;96232.66;5075395;28;1028;-50
2022/03/23 10:04:27;;;;;;;;;;;;;;;16.59;23.24;96223.19;5075698;28;1051;-50
2022/03/23 10:07:12;;;;;;;;;;;;;;;16.53;23.46;96229.28;5075282;28;1787;-50
2022/03/23 10:09:56;;;;;;;;;;;;;;;16.54;23.46;96227.41;5075770;28;977;-50
2022/03/23 10:12:38;;;;;;;;;;;;;;;16.27;23.55;96234.03;5075174;28;1909;-50
2022/03/23 10:15:23;;;;;;;;;;;;;;;16.51;23.50;96235.88;5075218;28;1036;-50
2022/03/23 10:18:10;;;;;;;;;;;;;;;16.81;23.10;96234.28;5075062;28;1020;-50
2022/03/23 10:20:36;;;;;;;;;;;;;;;17.00;22.47;96230.38;5075667;28;1638;-49
2022/03/23 10:23:04;;;;;;;;;;;;;;;16.75;23.05;96227.72;5075140;28;1142;-49
2022/03/23 10:25:30;;;;;;;;;;;;;;;16.61;22.78;96224.88;5075203;28;1016;-50
2022/03/23 10:27:56;;;;;;;;;;;;;;;16.48;22.96;96215.44;5074922;28;1068;-49
2022/03/23 10:30:36;;;;;;;;;;;;;;;16.60;23.03;96210.53;5075212;28;1988;-50
2022/03/23 10:33:02;;;;;;;;;;;;;;;16.56;23.30;96203.78;5074884;28;1119;-50
2022/03/23 10:35:38;;;;;;;;;;;;;;;16.26;22.74;96199.97;5075171;28;1015;-49
2022/03/23 10:38:13;;;;;;;;;;;;;;;16.23;22.65;96200.31;5074741;28;1012;-50
2022/03/23 10:40:41;;;;;;;;;;;;;;;16.26;22.06;96208.91;5074917;28;1093;-50
2022/03/23 10:43:08;;;;;;;;;;;;;;;16.33;21.96;96207.22;5074686;28;988;-50
2022/03/23 10:45:34;;;;;;;;;;;;;;;16.16;22.06;96206.41;5074940;28;1060;-50
2022/03/23 10:48:11;;;;;;;;;;;;;;;16.12;22.13;96188.84;5073423;28;973;-50
2022/03/23 10:50:37;;;;;;;;;;;;;;;16.18;22.14;96188.19;5074566;28;1915;-50
2022/03/23 10:53:07;;;;;;;;;;;;;;;16.16;22.15;96195.59;5074427;28;1064;-50
2022/03/23 10:55:37;;;;;;;;;;;;;;;15.84;22.22;96184.81;5073939;28;1028;-50
2022/03/23 10:58:03;;;;;;;;;;;;;;;15.60;22.41;96181.09;5074558;28;944;-49
2022/03/23 11:00:34;;;;;;;;;;;;;;;15.32;22.57;96167.91;5074601;28;968;-48
2022/03/23 11:03:00;;;;;;;;;;;;;;;15.32;22.44;96173.28;5074288;28;1061;-49
2022/03/23 11:05:36;;;;;;;;;;;;;;;15.36;22.64;96161.16;5074488;28;872;-49
2022/03/23 11:08:18;;;;;;;;;;;;;;;15.57;22.45;96151.75;5072903;28;1143;-49
2022/03/23 11:16:30;;;;;;;;;;;;;;;15.10;23.48;96128.13;5074175;28;956;-50
2022/03/23 11:18:56;;;;;;;;;;;;;;;15.23;23.04;96139.25;5074393;28;1037;-49
2022/03/23 11:21:22;;;;;;;;;;;;;;;15.34;22.95;96138.94;5074260;28;1067;-50
2022/03/23 11:23:49;;;;;;;;;;;;;;;15.34;23.07;96135.41;5072544;28;1760;-51
2022/03/23 11:26:15;;;;;;;;;;;;;;;15.31;23.24;96133.03;5072829;28;1041;-50
2022/03/23 11:28:43;;;;;;;;;;;;;;;15.27;23.32;96131.69;5072589;28;1472;-50
2022/03/23 11:31:11;;;;;;;;;;;;;;;15.21;23.43;96130.50;5073900;28;1906;-51
2022/03/23 11:33:38;;;;;;;;;;;;;;;15.12;23.02;96129.66;5073965;28;1073;-50
2022/03/23 11:36:12;;;;;;;;;;;;;;;15.12;23.17;96124.25;5073698;28;1055;-50
2022/03/23 11:38:39;;;;;;;;;;;;;;;15.13;22.78;96131.31;5073664;28;1086;-50
2022/03/23 11:41:06;;;;;;;;;;;;;;;14.89;23.30;96120.50;5073584;28;1028;-50
2022/03/23 11:43:37;;;;;;;;;;;;;;;15.11;23.24;96113.66;5073528;28;1015;-49
2022/03/23 11:46:04;;;;;;;;;;;;;;;15.10;23.26;96120.03;5073700;28;1047;-50
2022/03/23 11:48:50;;;;;;;;;;;;;;;15.06;22.95;96121.38;5073423;28;1060;-50
2022/03/23 11:51:18;;;;;;;;;;;;;;;14.99;22.97;96118.53;5073228;28;1975;-50
2022/03/23 11:53:54;;;;;;;;;;;;;;;14.88;23.61;96119.66;5073283;28;956;-50
2022/03/23 11:56:25;;;;;;;;;;;;;;;14.84;23.26;96119.13;5073760;28;1004;-50
2022/03/23 11:58:52;;;;;;;;;;;;;;;14.68;23.47;96120.94;5073189;28;1837;-50
2022/03/23 12:01:19;;;;;;;;;;;;;;;14.60;23.67;96106.44;5073473;28;1058;-50
2022/03/23 12:03:53;;;;;;;;;;;;;;;14.72;23.66;96106.13;5073272;28;1024;-50
2022/03/23 12:06:21;;;;;;;;;;;;;;;14.66;23.25;96109.50;5073306;28;952;-49
2022/03/23 12:08:49;;;;;;;;;;;;;;;14.61;23.58;96112.69;5073329;28;1027;-50
2022/03/23 12:11:30;;;;;;;;;;;;;;;14.53;23.39;96104.53;5073485;28;1906;-50
2022/03/23 12:13:58;;;;;;;;;;;;;;;14.56;23.12;96102.34;5072768;28;1044;-50
2022/03/23 12:16:43;;;;;;;;;;;;;;;14.44;22.96;96092.91;5072180;28;1091;-50
2022/03/23 12:19:10;;;;;;;;;;;;;;;14.54;23.09;96095.47;5073499;28;976;-50
2022/03/23 12:21:55;;;;;;;;;;;;;;;14.71;24.13;96099.09;5073276;28;1033;-50
2022/03/23 12:24:40;;;;;;;;;;;;;;;14.52;23.24;96103.69;5073197;28;1011;-50
2022/03/23 12:27:26;;;;;;;;;;;;;;;14.35;23.53;96099.25;5073150;28;1217;-50
2022/03/23 12:29:52;;;;;;;;;;;;;;;14.36;23.56;96091.03;5072831;28;1899;-50
2022/03/23 12:32:18;;;;;;;;;;;;;;;14.33;23.85;96098.56;5073062;28;1886;-50
2022/03/23 12:34:45;;;;;;;;;;;;;;;14.37;23.59;96095.38;5072799;28;1032;-50
2022/03/23 12:37:13;;;;;;;;;;;;;;;14.30;23.93;96082.75;5073164;28;1048;-50
2022/03/23 12:39:44;;;;;;;;;;;;;;;14.32;24.51;96081.56;5072937;28;1087;-50
2022/03/23 12:42:13;;;;;;;;;;;;;;;14.34;23.70;96084.09;5071670;28;2010;-49
2022/03/23 12:44:40;;;;;;;;;;;;;;;14.32;23.92;96081.56;5072969;28;1098;-50
2022/03/23 12:47:07;;;;;;;;;;;;;;;14.25;23.65;96070.63;5073092;28;995;-50
2022/03/23 12:58:06;;;;;;;;;;;;;;;14.22;23.42;96067.41;5072890;28;1060;-50
2022/03/23 13:00:33;;;;;;;;;;;;;;;14.03;23.84;96066.66;5072789;28;1071;-50
2022/03/23 13:03:02;;;;;;;;;;;;;;;14.15;23.33;96069.06;5072700;28;1000;-50
2022/03/23 13:05:28;;;;;;;;;;;;;;;14.19;23.37;96065.03;5073218;28;1036;-50
2022/03/23 13:07:54;;;;;;;;;;;;;;;14.01;23.32;96049.84;5071752;28;1016;-49
2022/03/23 13:10:24;;;;;;;;;;;;;;;13.88;22.94;96075.47;5072679;28;984;-49
2022/03/23 13:12:51;;;;;;;;;;;;;;;13.84;23.53;96073.09;5072369;28;1976;-49
2022/03/23 13:15:18;;;;;;;;;;;;;;;13.87;23.14;96055.81;5072577;28;1019;-49
2022/03/23 13:17:45;;;;;;;;;;;;;;;13.89;23.13;96055.63;5072663;28;913;-49
2022/03/23 13:20:13;;;;;;;;;;;;;;;13.92;23.17;96052.63;5075802;28;1083;-49
2022/03/23 13:22:39;;;;;;;;;;;;;;;14.06;23.13;96049.38;5076422;28;1035;-49
2022/03/23 13:25:07;;;;;;;;;;;;;;;14.13;23.29;96044.16;5076061;28;973;-49
2022/03/23 13:27:34;;;;;;;;;;;;;;;14.10;23.11;96039.13;5076363;28;1023;-49
2022/03/23 13:30:04;;;;;;;;;;;;;;;14.11;22.68;96046.19;5075939;28;1032;-49
2022/03/23 13:32:36;;;;;;;;;;;;;;;14.07;23.14;96048.34;5076360;28;2008;-49
2022/03/23 13:35:03;;;;;;;;;;;;;;;14.04;23.03;96046.00;5075921;28;1091;-49